sensor_id;sensor_type;location;lat;lon;timestamp;temperature;humidity
20560;DHT22;10438;51.454;6.718;2023-06-22T00:01:11;21.50;99.90
20560;DHT22;10438;51.454;6.718;2023-06-22T00:03:36;21.50;99.90
20560;DHT22;10438;51.454;6.718;2023-06-22T00:06:02;21.50;99.90
20560;DHT22;10438;51.454;6.718;2023-06-22T00:08:27;21.50;99.90
20560;DHT22;10438;51.454;6.718;2023-06-22T00:10:53;21.50;99.90
20560;DHT22;10438;51.454;6.718;2023-06-22T00:13:18;21.50;99.90
20560;DHT22;10438;51.454;6.718;2023-06-22T00:15:44;21.50;99.90
20560;DHT22;10438;51.454;6.718;2023-06-22T00:18:10;21.50;99.90
20560;DHT22;10438;51.454;6.718;2023-06-22T00:20:37;21.40;99.90
20560;DHT22;10438;51.454;6.718;2023-06-22T00:23:04;21.50;99.90
20560;DHT22;10438;51.454;6.718;2023-06-22T00:25:40;21.40;99.90
20560;DHT22;10438;51.454;6.718;2023-06-22T00:28:06;21.40;99.90
20560;DHT22;10438;51.454;6.718;2023-06-22T00:30:33;21.40;99.90
20560;DHT22;10438;51.454;6.718;2023-06-22T00:32:59;21.40;99.90
20560;DHT22;10438;51.454;6.718;2023-06-22T00:35:25;21.30;99.90
20560;DHT22;10438;51.454;6.718;2023-06-22T00:37:58;21.30;99.90
20560;DHT22;10438;51.454;6.718;2023-06-22T00:40:26;21.20;99.90
20560;DHT22;10438;51.454;6.718;2023-06-22T00:42:51;21.20;99.90
20560;DHT22;10438;51.454;6.718;2023-06-22T00:45:17;21.20;99.90
20560;DHT22;10438;51.454;6.718;2023-06-22T00:47:42;21.20;99.90
20560;DHT22;10438;51.454;6.718;2023-06-22T00:50:11;21.10;99.90
20560;DHT22;10438;51.454;6.718;2023-06-22T00:52:38;21.10;99.90
20560;DHT22;10438;51.454;6.718;2023-06-22T00:55:09;21.10;99.90
20560;DHT22;10438;51.454;6.718;2023-06-22T00:57:35;21.00;99.90
20560;DHT22;10438;51.454;6.718;2023-06-22T01:00:03;21.10;99.90
20560;DHT22;10438;51.454;6.718;2023-06-22T01:02:31;21.00;99.90
20560;DHT22;10438;51.454;6.718;2023-06-22T01:04:57;21.00;99.90
20560;DHT22;10438;51.454;6.718;2023-06-22T01:07:37;20.90;99.90
20560;DHT22;10438;51.454;6.718;2023-06-22T01:11:07;20.90;99.90
20560;DHT22;10438;51.454;6.718;2023-06-22T01:13:34;20.90;99.90
20560;DHT22;10438;51.454;6.718;2023-06-22T01:16:07;20.90;99.90
20560;DHT22;10438;51.454;6.718;2023-06-22T01:18:35;20.80;99.90
20560;DHT22;10438;51.454;6.718;2023-06-22T01:21:03;20.80;99.90
20560;DHT22;10438;51.454;6.718;2023-06-22T01:26:22;20.80;99.90
20560;DHT22;10438;51.454;6.718;2023-06-22T01:28:54;20.70;99.90
20560;DHT22;10438;51.454;6.718;2023-06-22T01:31:27;20.70;99.90
20560;DHT22;10438;51.454;6.718;2023-06-22T01:33:59;20.70;99.90
20560;DHT22;10438;51.454;6.718;2023-06-22T01:36:26;20.60;99.90
20560;DHT22;10438;51.454;6.718;2023-06-22T01:38:52;20.70;99.90
20560;DHT22;10438;51.454;6.718;2023-06-22T01:41:19;20.60;99.90
20560;DHT22;10438;51.454;6.718;2023-06-22T01:43:46;20.60;99.90
20560;DHT22;10438;51.454;6.718;2023-06-22T01:46:12;20.60;99.90
20560;DHT22;10438;51.454;6.718;2023-06-22T01:48:39;20.50;99.90
20560;DHT22;10438;51.454;6.718;2023-06-22T01:51:05;20.50;99.90
20560;DHT22;10438;51.454;6.718;2023-06-22T01:53:31;20.50;99.90
20560;DHT22;10438;51.454;6.718;2023-06-22T01:55:56;20.50;99.90
20560;DHT22;10438;51.454;6.718;2023-06-22T01:58:26;20.50;99.90
20560;DHT22;10438;51.454;6.718;2023-06-22T02:00:59;20.40;99.90
20560;DHT22;10438;51.454;6.718;2023-06-22T02:03:35;20.50;99.90
20560;DHT22;10438;51.454;6.718;2023-06-22T02:06:07;20.40;99.90
20560;DHT22;10438;51.454;6.718;2023-06-22T02:08:49;20.40;99.90
20560;DHT22;10438;51.454;6.718;2023-06-22T02:11:18;20.40;99.90
20560;DHT22;10438;51.454;6.718;2023-06-22T02:13:46;20.40;99.90
20560;DHT22;10438;51.454;6.718;2023-06-22T02:16:12;20.40;99.90
20560;DHT22;10438;51.454;6.718;2023-06-22T02:18:38;20.40;99.90
20560;DHT22;10438;51.454;6.718;2023-06-22T02:21:05;20.40;99.90
20560;DHT22;10438;51.454;6.718;2023-06-22T02:23:31;20.40;99.90
20560;DHT22;10438;51.454;6.718;2023-06-22T02:26:00;20.50;99.90
20560;DHT22;10438;51.454;6.718;2023-06-22T02:28:26;20.40;99.90
20560;DHT22;10438;51.454;6.718;2023-06-22T02:30:51;20.50;99.90
20560;DHT22;10438;51.454;6.718;2023-06-22T02:33:17;20.40;99.90
20560;DHT22;10438;51.454;6.718;2023-06-22T02:35:42;20.40;99.90
20560;DHT22;10438;51.454;6.718;2023-06-22T02:38:10;20.40;99.90
20560;DHT22;10438;51.454;6.718;2023-06-22T02:40:36;20.40;99.90
20560;DHT22;10438;51.454;6.718;2023-06-22T02:43:02;20.40;99.90
20560;DHT22;10438;51.454;6.718;2023-06-22T02:45:28;20.40;99.90
20560;DHT22;10438;51.454;6.718;2023-06-22T02:47:54;20.40;99.90
20560;DHT22;10438;51.454;6.718;2023-06-22T02:50:20;20.40;99.90
20560;DHT22;10438;51.454;6.718;2023-06-22T02:52:46;20.40;99.90
20560;DHT22;10438;51.454;6.718;2023-06-22T02:55:11;20.40;99.90
20560;DHT22;10438;51.454;6.718;2023-06-22T02:57:37;20.40;99.90
20560;DHT22;10438;51.454;6.718;2023-06-22T03:00:04;20.40;99.90
20560;DHT22;10438;51.454;6.718;2023-06-22T03:02:44;20.30;99.90
20560;DHT22;10438;51.454;6.718;2023-06-22T03:05:10;20.30;99.90
20560;DHT22;10438;51.454;6.718;2023-06-22T03:07:42;20.30;99.90
20560;DHT22;10438;51.454;6.718;2023-06-22T03:10:09;20.30;99.90
20560;DHT22;10438;51.454;6.718;2023-06-22T03:12:35;20.30;99.90
20560;DHT22;10438;51.454;6.718;2023-06-22T03:15:00;20.20;99.90
20560;DHT22;10438;51.454;6.718;2023-06-22T03:17:26;20.20;99.90
20560;DHT22;10438;51.454;6.718;2023-06-22T03:19:51;20.10;99.90
20560;DHT22;10438;51.454;6.718;2023-06-22T03:22:17;20.00;99.90
20560;DHT22;10438;51.454;6.718;2023-06-22T03:24:42;20.00;99.90
20560;DHT22;10438;51.454;6.718;2023-06-22T03:27:08;20.00;99.90
20560;DHT22;10438;51.454;6.718;2023-06-22T03:29:33;20.00;99.90
20560;DHT22;10438;51.454;6.718;2023-06-22T03:31:59;19.90;99.90
20560;DHT22;10438;51.454;6.718;2023-06-22T03:34:25;19.90;99.90
20560;DHT22;10438;51.454;6.718;2023-06-22T03:36:50;19.90;99.90
20560;DHT22;10438;51.454;6.718;2023-06-22T03:39:16;19.90;99.90
20560;DHT22;10438;51.454;6.718;2023-06-22T03:41:41;19.90;99.90
20560;DHT22;10438;51.454;6.718;2023-06-22T03:44:07;19.90;99.90
20560;DHT22;10438;51.454;6.718;2023-06-22T03:46:35;19.90;99.90
20560;DHT22;10438;51.454;6.718;2023-06-22T03:49:01;19.90;99.90
20560;DHT22;10438;51.454;6.718;2023-06-22T03:51:28;19.90;99.90
20560;DHT22;10438;51.454;6.718;2023-06-22T03:53:54;19.90;99.90
20560;DHT22;10438;51.454;6.718;2023-06-22T03:56:19;19.90;99.90
20560;DHT22;10438;51.454;6.718;2023-06-22T03:58:46;19.90;99.90
20560;DHT22;10438;51.454;6.718;2023-06-22T04:01:12;19.80;99.90
20560;DHT22;10438;51.454;6.718;2023-06-22T04:03:38;19.90;99.90
20560;DHT22;10438;51.454;6.718;2023-06-22T04:06:04;19.90;99.90
20560;DHT22;10438;51.454;6.718;2023-06-22T04:08:30;19.90;99.90
20560;DHT22;10438;51.454;6.718;2023-06-22T04:10:55;19.90;99.90
20560;DHT22;10438;51.454;6.718;2023-06-22T04:13:21;20.00;99.90
20560;DHT22;10438;51.454;6.718;2023-06-22T04:15:47;20.00;99.90
20560;DHT22;10438;51.454;6.718;2023-06-22T04:18:12;20.10;99.90
20560;DHT22;10438;51.454;6.718;2023-06-22T04:20:38;20.20;99.90
20560;DHT22;10438;51.454;6.718;2023-06-22T04:23:04;20.30;99.90
20560;DHT22;10438;51.454;6.718;2023-06-22T04:25:30;20.30;99.90
20560;DHT22;10438;51.454;6.718;2023-06-22T04:27:56;20.40;99.90
20560;DHT22;10438;51.454;6.718;2023-06-22T04:30:21;20.40;99.90
20560;DHT22;10438;51.454;6.718;2023-06-22T04:32:47;20.40;99.90
20560;DHT22;10438;51.454;6.718;2023-06-22T04:35:31;20.40;99.90
20560;DHT22;10438;51.454;6.718;2023-06-22T04:37:58;20.40;99.90
20560;DHT22;10438;51.454;6.718;2023-06-22T04:40:24;20.40;99.90
20560;DHT22;10438;51.454;6.718;2023-06-22T04:42:49;20.40;99.90
20560;DHT22;10438;51.454;6.718;2023-06-22T04:45:19;20.30;99.90
20560;DHT22;10438;51.454;6.718;2023-06-22T04:47:45;20.30;99.90
20560;DHT22;10438;51.454;6.718;2023-06-22T04:50:11;20.30;99.90
20560;DHT22;10438;51.454;6.718;2023-06-22T04:52:37;20.40;99.90
20560;DHT22;10438;51.454;6.718;2023-06-22T04:55:03;20.40;99.90
20560;DHT22;10438;51.454;6.718;2023-06-22T04:57:29;20.40;99.90
20560;DHT22;10438;51.454;6.718;2023-06-22T05:00:00;20.40;99.90
20560;DHT22;10438;51.454;6.718;2023-06-22T05:02:46;20.30;99.90
20560;DHT22;10438;51.454;6.718;2023-06-22T05:05:13;20.40;99.90
20560;DHT22;10438;51.454;6.718;2023-06-22T05:07:46;20.40;99.90
20560;DHT22;10438;51.454;6.718;2023-06-22T05:10:14;20.30;99.90
20560;DHT22;10438;51.454;6.718;2023-06-22T05:12:40;20.30;99.90
20560;DHT22;10438;51.454;6.718;2023-06-22T05:15:07;20.40;99.90
20560;DHT22;10438;51.454;6.718;2023-06-22T05:17:33;20.40;99.90
20560;DHT22;10438;51.454;6.718;2023-06-22T05:19:59;20.40;99.90
20560;DHT22;10438;51.454;6.718;2023-06-22T05:22:25;20.40;99.90
20560;DHT22;10438;51.454;6.718;2023-06-22T05:24:50;20.50;99.90
20560;DHT22;10438;51.454;6.718;2023-06-22T05:27:16;20.50;99.90
20560;DHT22;10438;51.454;6.718;2023-06-22T05:29:41;20.50;99.90
20560;DHT22;10438;51.454;6.718;2023-06-22T05:32:08;20.60;99.90
20560;DHT22;10438;51.454;6.718;2023-06-22T05:34:33;20.60;99.90
20560;DHT22;10438;51.454;6.718;2023-06-22T05:36:59;20.60;99.90
20560;DHT22;10438;51.454;6.718;2023-06-22T05:39:25;20.60;99.90
20560;DHT22;10438;51.454;6.718;2023-06-22T05:41:51;20.70;99.90
20560;DHT22;10438;51.454;6.718;2023-06-22T05:44:17;20.70;99.90
20560;DHT22;10438;51.454;6.718;2023-06-22T05:46:44;20.70;99.90
20560;DHT22;10438;51.454;6.718;2023-06-22T05:49:14;20.70;99.90
20560;DHT22;10438;51.454;6.718;2023-06-22T05:51:41;20.70;99.90
20560;DHT22;10438;51.454;6.718;2023-06-22T05:54:06;20.60;99.90
20560;DHT22;10438;51.454;6.718;2023-06-22T05:56:34;20.60;99.90
20560;DHT22;10438;51.454;6.718;2023-06-22T05:58:59;20.50;99.90
20560;DHT22;10438;51.454;6.718;2023-06-22T06:01:25;20.50;99.90
20560;DHT22;10438;51.454;6.718;2023-06-22T06:03:51;20.40;99.90
20560;DHT22;10438;51.454;6.718;2023-06-22T06:06:18;20.40;99.90
20560;DHT22;10438;51.454;6.718;2023-06-22T06:08:43;20.40;99.90
20560;DHT22;10438;51.454;6.718;2023-06-22T06:11:09;20.50;99.90
20560;DHT22;10438;51.454;6.718;2023-06-22T06:13:34;20.50;99.90
20560;DHT22;10438;51.454;6.718;2023-06-22T06:16:00;20.50;99.90
20560;DHT22;10438;51.454;6.718;2023-06-22T06:18:26;20.50;99.90
20560;DHT22;10438;51.454;6.718;2023-06-22T06:20:51;20.50;99.90
20560;DHT22;10438;51.454;6.718;2023-06-22T06:23:17;20.50;99.90
20560;DHT22;10438;51.454;6.718;2023-06-22T06:25:42;20.60;99.90
20560;DHT22;10438;51.454;6.718;2023-06-22T06:28:08;20.60;99.90
20560;DHT22;10438;51.454;6.718;2023-06-22T06:30:34;20.60;99.90
20560;DHT22;10438;51.454;6.718;2023-06-22T06:33:02;20.60;99.90
20560;DHT22;10438;51.454;6.718;2023-06-22T06:35:28;20.60;99.90
20560;DHT22;10438;51.454;6.718;2023-06-22T06:37:53;20.60;99.90
20560;DHT22;10438;51.454;6.718;2023-06-22T06:40:19;20.60;99.90
20560;DHT22;10438;51.454;6.718;2023-06-22T06:42:48;20.60;99.90
20560;DHT22;10438;51.454;6.718;2023-06-22T06:45:20;20.60;99.90
20560;DHT22;10438;51.454;6.718;2023-06-22T06:47:48;20.60;99.90
20560;DHT22;10438;51.454;6.718;2023-06-22T06:50:13;20.60;99.90
20560;DHT22;10438;51.454;6.718;2023-06-22T06:52:39;20.60;99.90
20560;DHT22;10438;51.454;6.718;2023-06-22T06:55:05;20.60;99.90
20560;DHT22;10438;51.454;6.718;2023-06-22T06:57:34;20.60;99.90
20560;DHT22;10438;51.454;6.718;2023-06-22T07:00:00;20.60;99.90
20560;DHT22;10438;51.454;6.718;2023-06-22T07:02:26;20.70;99.90
20560;DHT22;10438;51.454;6.718;2023-06-22T07:04:54;20.80;99.90
20560;DHT22;10438;51.454;6.718;2023-06-22T07:07:24;20.80;99.90
20560;DHT22;10438;51.454;6.718;2023-06-22T07:09:49;20.80;99.90
20560;DHT22;10438;51.454;6.718;2023-06-22T07:12:15;20.90;99.90
20560;DHT22;10438;51.454;6.718;2023-06-22T07:14:40;20.90;99.90
20560;DHT22;10438;51.454;6.718;2023-06-22T07:17:06;20.90;99.90
20560;DHT22;10438;51.454;6.718;2023-06-22T07:19:33;20.80;99.90
20560;DHT22;10438;51.454;6.718;2023-06-22T07:21:59;20.80;99.90
20560;DHT22;10438;51.454;6.718;2023-06-22T07:24:24;20.90;99.90
20560;DHT22;10438;51.454;6.718;2023-06-22T07:26:50;20.80;99.90
20560;DHT22;10438;51.454;6.718;2023-06-22T07:29:20;20.80;99.90
20560;DHT22;10438;51.454;6.718;2023-06-22T07:31:47;20.80;99.90
20560;DHT22;10438;51.454;6.718;2023-06-22T07:34:13;20.90;99.90
20560;DHT22;10438;51.454;6.718;2023-06-22T07:36:38;20.90;99.90
20560;DHT22;10438;51.454;6.718;2023-06-22T07:39:04;21.10;99.90
20560;DHT22;10438;51.454;6.718;2023-06-22T07:41:30;21.20;99.90
20560;DHT22;10438;51.454;6.718;2023-06-22T07:43:56;21.20;99.90
20560;DHT22;10438;51.454;6.718;2023-06-22T07:46:22;21.20;99.90
20560;DHT22;10438;51.454;6.718;2023-06-22T07:48:48;21.20;99.90
20560;DHT22;10438;51.454;6.718;2023-06-22T07:51:13;21.10;99.90
20560;DHT22;10438;51.454;6.718;2023-06-22T07:53:41;21.10;99.90
20560;DHT22;10438;51.454;6.718;2023-06-22T07:56:09;21.10;99.90
20560;DHT22;10438;51.454;6.718;2023-06-22T07:58:35;21.20;99.90
20560;DHT22;10438;51.454;6.718;2023-06-22T08:01:01;21.10;99.90
20560;DHT22;10438;51.454;6.718;2023-06-22T08:03:26;21.10;99.90
20560;DHT22;10438;51.454;6.718;2023-06-22T08:05:52;21.10;99.90
20560;DHT22;10438;51.454;6.718;2023-06-22T08:08:17;21.10;99.90
20560;DHT22;10438;51.454;6.718;2023-06-22T08:10:43;21.00;99.90
20560;DHT22;10438;51.454;6.718;2023-06-22T08:13:09;21.10;99.90
20560;DHT22;10438;51.454;6.718;2023-06-22T08:15:35;21.00;99.90
20560;DHT22;10438;51.454;6.718;2023-06-22T08:18:00;21.10;99.90
20560;DHT22;10438;51.454;6.718;2023-06-22T08:20:26;21.20;99.90
20560;DHT22;10438;51.454;6.718;2023-06-22T08:22:53;21.30;99.90
20560;DHT22;10438;51.454;6.718;2023-06-22T08:25:19;21.30;99.90
20560;DHT22;10438;51.454;6.718;2023-06-22T08:27:45;21.50;99.90
20560;DHT22;10438;51.454;6.718;2023-06-22T08:30:12;21.50;99.90
20560;DHT22;10438;51.454;6.718;2023-06-22T08:32:38;21.50;99.90
20560;DHT22;10438;51.454;6.718;2023-06-22T08:35:04;21.60;99.90
20560;DHT22;10438;51.454;6.718;2023-06-22T08:37:32;21.70;99.90
20560;DHT22;10438;51.454;6.718;2023-06-22T08:40:01;21.70;99.90
20560;DHT22;10438;51.454;6.718;2023-06-22T08:42:28;21.70;99.90
20560;DHT22;10438;51.454;6.718;2023-06-22T08:44:54;21.70;99.90
20560;DHT22;10438;51.454;6.718;2023-06-22T08:47:20;21.70;99.90
20560;DHT22;10438;51.454;6.718;2023-06-22T08:49:46;21.70;99.90
20560;DHT22;10438;51.454;6.718;2023-06-22T08:52:12;21.70;99.90
20560;DHT22;10438;51.454;6.718;2023-06-22T08:54:38;21.70;99.90
20560;DHT22;10438;51.454;6.718;2023-06-22T08:57:04;21.70;99.90
20560;DHT22;10438;51.454;6.718;2023-06-22T08:59:29;21.60;99.90
20560;DHT22;10438;51.454;6.718;2023-06-22T09:01:55;21.70;99.90
20560;DHT22;10438;51.454;6.718;2023-06-22T09:04:20;21.80;99.90
20560;DHT22;10438;51.454;6.718;2023-06-22T09:06:49;21.70;99.90
20560;DHT22;10438;51.454;6.718;2023-06-22T09:09:16;21.80;99.90
20560;DHT22;10438;51.454;6.718;2023-06-22T09:11:42;21.80;99.90
20560;DHT22;10438;51.454;6.718;2023-06-22T09:14:08;21.90;99.90
20560;DHT22;10438;51.454;6.718;2023-06-22T09:16:33;21.90;99.90
20560;DHT22;10438;51.454;6.718;2023-06-22T09:18:59;22.00;99.90
20560;DHT22;10438;51.454;6.718;2023-06-22T09:21:25;22.10;99.90
20560;DHT22;10438;51.454;6.718;2023-06-22T09:23:50;22.30;99.90
20560;DHT22;10438;51.454;6.718;2023-06-22T09:26:20;22.30;99.90
20560;DHT22;10438;51.454;6.718;2023-06-22T09:28:45;22.40;99.90
20560;DHT22;10438;51.454;6.718;2023-06-22T09:31:11;22.50;99.90
20560;DHT22;10438;51.454;6.718;2023-06-22T09:33:37;22.70;99.90
20560;DHT22;10438;51.454;6.718;2023-06-22T09:36:06;22.90;99.90
20560;DHT22;10438;51.454;6.718;2023-06-22T09:38:36;23.10;99.90
20560;DHT22;10438;51.454;6.718;2023-06-22T09:41:02;23.40;99.90
20560;DHT22;10438;51.454;6.718;2023-06-22T09:43:29;23.50;99.90
20560;DHT22;10438;51.454;6.718;2023-06-22T09:45:55;23.50;99.90
20560;DHT22;10438;51.454;6.718;2023-06-22T09:48:20;23.30;99.90
20560;DHT22;10438;51.454;6.718;2023-06-22T09:50:46;23.40;99.90
20560;DHT22;10438;51.454;6.718;2023-06-22T09:53:11;23.60;99.90
20560;DHT22;10438;51.454;6.718;2023-06-22T09:55:37;23.80;99.90
20560;DHT22;10438;51.454;6.718;2023-06-22T09:58:02;23.90;99.90
20560;DHT22;10438;51.454;6.718;2023-06-22T10:00:28;24.30;99.90
20560;DHT22;10438;51.454;6.718;2023-06-22T10:02:54;24.50;99.90
20560;DHT22;10438;51.454;6.718;2023-06-22T10:05:21;24.70;99.90
20560;DHT22;10438;51.454;6.718;2023-06-22T10:07:46;24.90;99.90
20560;DHT22;10438;51.454;6.718;2023-06-22T10:10:12;25.30;99.90
20560;DHT22;10438;51.454;6.718;2023-06-22T10:12:47;25.40;99.90
20560;DHT22;10438;51.454;6.718;2023-06-22T10:15:13;25.40;99.90
20560;DHT22;10438;51.454;6.718;2023-06-22T10:17:39;25.60;99.90
20560;DHT22;10438;51.454;6.718;2023-06-22T10:20:06;25.70;99.90
20560;DHT22;10438;51.454;6.718;2023-06-22T10:22:43;25.50;99.90
20560;DHT22;10438;51.454;6.718;2023-06-22T10:25:09;25.40;99.90
20560;DHT22;10438;51.454;6.718;2023-06-22T10:27:35;25.50;99.90
20560;DHT22;10438;51.454;6.718;2023-06-22T10:30:01;25.60;99.90
20560;DHT22;10438;51.454;6.718;2023-06-22T10:32:27;25.80;99.90
20560;DHT22;10438;51.454;6.718;2023-06-22T10:34:54;25.90;99.90
20560;DHT22;10438;51.454;6.718;2023-06-22T10:37:19;25.80;99.90
20560;DHT22;10438;51.454;6.718;2023-06-22T10:39:45;25.80;99.90
20560;DHT22;10438;51.454;6.718;2023-06-22T10:42:12;25.80;99.90
20560;DHT22;10438;51.454;6.718;2023-06-22T10:44:37;25.90;99.90
20560;DHT22;10438;51.454;6.718;2023-06-22T10:47:04;25.70;99.90
20560;DHT22;10438;51.454;6.718;2023-06-22T10:49:30;25.70;99.90
20560;DHT22;10438;51.454;6.718;2023-06-22T10:51:55;25.50;99.90
20560;DHT22;10438;51.454;6.718;2023-06-22T10:54:21;25.50;99.90
20560;DHT22;10438;51.454;6.718;2023-06-22T10:56:46;25.30;99.90
20560;DHT22;10438;51.454;6.718;2023-06-22T10:59:12;25.00;99.90
20560;DHT22;10438;51.454;6.718;2023-06-22T11:01:37;24.90;99.90
20560;DHT22;10438;51.454;6.718;2023-06-22T11:04:03;24.70;99.90
20560;DHT22;10438;51.454;6.718;2023-06-22T11:06:29;24.60;99.90
20560;DHT22;10438;51.454;6.718;2023-06-22T11:08:54;24.40;99.90
20560;DHT22;10438;51.454;6.718;2023-06-22T11:11:20;24.40;99.90
20560;DHT22;10438;51.454;6.718;2023-06-22T11:13:45;24.30;99.90
20560;DHT22;10438;51.454;6.718;2023-06-22T11:16:11;24.20;99.90
20560;DHT22;10438;51.454;6.718;2023-06-22T11:18:37;24.20;99.90
20560;DHT22;10438;51.454;6.718;2023-06-22T11:21:02;24.10;99.90
20560;DHT22;10438;51.454;6.718;2023-06-22T11:23:28;24.10;99.90
20560;DHT22;10438;51.454;6.718;2023-06-22T11:25:54;24.00;99.90
20560;DHT22;10438;51.454;6.718;2023-06-22T11:28:19;23.90;99.90
20560;DHT22;10438;51.454;6.718;2023-06-22T11:30:45;23.80;99.90
20560;DHT22;10438;51.454;6.718;2023-06-22T11:33:10;23.60;99.90
20560;DHT22;10438;51.454;6.718;2023-06-22T11:35:36;23.30;99.90
20560;DHT22;10438;51.454;6.718;2023-06-22T11:38:02;23.00;99.90
20560;DHT22;10438;51.454;6.718;2023-06-22T11:40:29;22.80;99.90
20560;DHT22;10438;51.454;6.718;2023-06-22T11:42:54;22.70;99.90
20560;DHT22;10438;51.454;6.718;2023-06-22T11:45:20;22.40;99.90
20560;DHT22;10438;51.454;6.718;2023-06-22T11:47:46;22.20;99.90
20560;DHT22;10438;51.454;6.718;2023-06-22T11:50:11;22.00;99.90
20560;DHT22;10438;51.454;6.718;2023-06-22T11:52:37;21.80;99.90
20560;DHT22;10438;51.454;6.718;2023-06-22T11:55:03;21.70;99.90
20560;DHT22;10438;51.454;6.718;2023-06-22T11:57:32;21.60;99.90
20560;DHT22;10438;51.454;6.718;2023-06-22T11:59:58;21.50;99.90
20560;DHT22;10438;51.454;6.718;2023-06-22T12:02:23;21.40;99.90
20560;DHT22;10438;51.454;6.718;2023-06-22T12:04:49;21.30;99.90
20560;DHT22;10438;51.454;6.718;2023-06-22T12:07:18;21.20;99.90
20560;DHT22;10438;51.454;6.718;2023-06-22T12:09:43;21.20;99.90
20560;DHT22;10438;51.454;6.718;2023-06-22T12:12:09;21.20;99.90
20560;DHT22;10438;51.454;6.718;2023-06-22T12:14:35;21.20;99.90
20560;DHT22;10438;51.454;6.718;2023-06-22T12:17:00;21.30;99.90
20560;DHT22;10438;51.454;6.718;2023-06-22T12:19:26;21.30;99.90
20560;DHT22;10438;51.454;6.718;2023-06-22T12:21:51;21.30;99.90
20560;DHT22;10438;51.454;6.718;2023-06-22T12:24:17;21.40;99.90
20560;DHT22;10438;51.454;6.718;2023-06-22T12:26:42;21.50;99.90
20560;DHT22;10438;51.454;6.718;2023-06-22T12:29:08;21.70;99.90
20560;DHT22;10438;51.454;6.718;2023-06-22T12:31:35;22.00;99.90
20560;DHT22;10438;51.454;6.718;2023-06-22T12:34:00;22.40;99.90
20560;DHT22;10438;51.454;6.718;2023-06-22T12:36:26;22.70;99.90
20560;DHT22;10438;51.454;6.718;2023-06-22T12:38:51;22.80;99.90
20560;DHT22;10438;51.454;6.718;2023-06-22T12:41:17;22.80;99.90
20560;DHT22;10438;51.454;6.718;2023-06-22T12:43:43;22.80;99.90
20560;DHT22;10438;51.454;6.718;2023-06-22T12:46:08;22.80;99.90
20560;DHT22;10438;51.454;6.718;2023-06-22T12:48:33;22.80;99.90
20560;DHT22;10438;51.454;6.718;2023-06-22T12:50:59;22.60;99.90
20560;DHT22;10438;51.454;6.718;2023-06-22T12:53:24;22.60;99.90
20560;DHT22;10438;51.454;6.718;2023-06-22T12:55:52;22.60;99.90
20560;DHT22;10438;51.454;6.718;2023-06-22T12:58:18;22.60;99.90
20560;DHT22;10438;51.454;6.718;2023-06-22T13:00:43;22.70;99.90
20560;DHT22;10438;51.454;6.718;2023-06-22T13:03:09;22.80;99.90
20560;DHT22;10438;51.454;6.718;2023-06-22T13:05:34;22.70;99.90
20560;DHT22;10438;51.454;6.718;2023-06-22T13:08:01;22.80;99.90
20560;DHT22;10438;51.454;6.718;2023-06-22T13:10:27;22.80;99.90
20560;DHT22;10438;51.454;6.718;2023-06-22T13:12:52;22.60;99.90
20560;DHT22;10438;51.454;6.718;2023-06-22T13:15:26;22.60;99.90
20560;DHT22;10438;51.454;6.718;2023-06-22T13:17:51;22.50;99.90
20560;DHT22;10438;51.454;6.718;2023-06-22T13:20:17;22.60;99.90
20560;DHT22;10438;51.454;6.718;2023-06-22T13:22:43;22.50;99.90
20560;DHT22;10438;51.454;6.718;2023-06-22T13:25:09;22.50;99.90
20560;DHT22;10438;51.454;6.718;2023-06-22T13:27:38;22.50;99.90
20560;DHT22;10438;51.454;6.718;2023-06-22T13:30:04;22.40;99.90
20560;DHT22;10438;51.454;6.718;2023-06-22T13:32:30;22.30;99.90
20560;DHT22;10438;51.454;6.718;2023-06-22T13:34:55;22.20;99.90
20560;DHT22;10438;51.454;6.718;2023-06-22T13:37:21;22.20;99.90
20560;DHT22;10438;51.454;6.718;2023-06-22T13:39:46;22.10;99.90
20560;DHT22;10438;51.454;6.718;2023-06-22T13:42:12;22.10;99.90
20560;DHT22;10438;51.454;6.718;2023-06-22T13:44:37;22.10;99.90
20560;DHT22;10438;51.454;6.718;2023-06-22T13:47:03;22.20;99.90
20560;DHT22;10438;51.454;6.718;2023-06-22T13:49:30;22.20;99.90
20560;DHT22;10438;51.454;6.718;2023-06-22T13:51:55;22.10;99.90
20560;DHT22;10438;51.454;6.718;2023-06-22T13:54:21;22.20;99.90
20560;DHT22;10438;51.454;6.718;2023-06-22T13:56:46;22.20;99.90
20560;DHT22;10438;51.454;6.718;2023-06-22T13:59:12;22.30;99.90
20560;DHT22;10438;51.454;6.718;2023-06-22T14:01:37;22.40;99.90
20560;DHT22;10438;51.454;6.718;2023-06-22T14:04:05;22.50;99.90
20560;DHT22;10438;51.454;6.718;2023-06-22T14:06:30;22.50;99.90
20560;DHT22;10438;51.454;6.718;2023-06-22T14:08:56;22.60;99.90
20560;DHT22;10438;51.454;6.718;2023-06-22T14:11:22;22.70;99.90
20560;DHT22;10438;51.454;6.718;2023-06-22T14:13:47;22.70;99.90
20560;DHT22;10438;51.454;6.718;2023-06-22T14:16:13;22.70;99.90
20560;DHT22;10438;51.454;6.718;2023-06-22T14:18:38;22.80;99.90
20560;DHT22;10438;51.454;6.718;2023-06-22T14:21:04;22.80;99.90
20560;DHT22;10438;51.454;6.718;2023-06-22T14:23:30;22.70;99.90
20560;DHT22;10438;51.454;6.718;2023-06-22T14:25:55;22.70;99.90
20560;DHT22;10438;51.454;6.718;2023-06-22T14:28:21;22.70;99.90
20560;DHT22;10438;51.454;6.718;2023-06-22T14:30:46;22.60;99.90
20560;DHT22;10438;51.454;6.718;2023-06-22T14:33:12;22.50;99.90
20560;DHT22;10438;51.454;6.718;2023-06-22T14:35:38;22.50;99.90
20560;DHT22;10438;51.454;6.718;2023-06-22T14:38:03;22.40;99.90
20560;DHT22;10438;51.454;6.718;2023-06-22T14:40:29;22.50;99.90
20560;DHT22;10438;51.454;6.718;2023-06-22T14:42:54;22.50;99.90
20560;DHT22;10438;51.454;6.718;2023-06-22T14:45:22;22.30;99.90
20560;DHT22;10438;51.454;6.718;2023-06-22T14:47:47;22.30;99.90
20560;DHT22;10438;51.454;6.718;2023-06-22T14:50:13;22.30;99.90
20560;DHT22;10438;51.454;6.718;2023-06-22T14:52:38;22.30;99.90
20560;DHT22;10438;51.454;6.718;2023-06-22T14:55:04;22.30;99.90
20560;DHT22;10438;51.454;6.718;2023-06-22T14:57:30;22.20;99.90
20560;DHT22;10438;51.454;6.718;2023-06-22T14:59:56;22.20;99.90
20560;DHT22;10438;51.454;6.718;2023-06-22T15:02:21;22.10;99.90
20560;DHT22;10438;51.454;6.718;2023-06-22T15:04:47;22.00;99.90
20560;DHT22;10438;51.454;6.718;2023-06-22T15:07:13;21.90;99.90
20560;DHT22;10438;51.454;6.718;2023-06-22T15:09:38;21.90;99.90
20560;DHT22;10438;51.454;6.718;2023-06-22T15:12:07;21.90;99.90
20560;DHT22;10438;51.454;6.718;2023-06-22T15:14:41;22.00;99.90
20560;DHT22;10438;51.454;6.718;2023-06-22T15:17:07;22.00;99.90
20560;DHT22;10438;51.454;6.718;2023-06-22T15:19:36;21.90;99.90
20560;DHT22;10438;51.454;6.718;2023-06-22T15:22:06;21.90;99.90
20560;DHT22;10438;51.454;6.718;2023-06-22T15:24:32;21.80;99.90
20560;DHT22;10438;51.454;6.718;2023-06-22T15:26:58;21.80;99.90
20560;DHT22;10438;51.454;6.718;2023-06-22T15:29:24;21.70;99.90